createdAt,value
2022-09-18T00:01:33.125Z,4.03
2022-09-18T00:04:04.121Z,3.55
2022-09-18T00:06:38.279Z,3.95
2022-09-18T00:09:10.672Z,3.65
2022-09-18T00:11:46.900Z,3.40
2022-09-18T00:14:19.564Z,4.13
2022-09-18T00:16:46.877Z,5.50
2022-09-18T00:19:15.447Z,5.47
2022-09-18T00:21:48.787Z,5.47
2022-09-18T00:24:19.591Z,4.75
2022-09-18T00:26:47.898Z,3.88
2022-09-18T00:29:16.053Z,3.33
2022-09-18T00:31:43.597Z,3.70
2022-09-18T00:34:15.905Z,3.30
2022-09-18T00:36:44.283Z,3.43
2022-09-18T00:39:11.397Z,4.18
2022-09-18T00:41:43.157Z,4.13
2022-09-18T00:44:41.965Z,3.90
2022-09-18T00:47:11.947Z,3.63
2022-09-18T00:50:14.957Z,4.15
2022-09-18T00:52:59.937Z,2.63
2022-09-18T00:55:35.513Z,3.95
2022-09-18T00:58:04.745Z,4.68
2022-09-18T01:00:34.870Z,4.60
2022-09-18T01:03:02.643Z,4.22
2022-09-18T01:05:48.630Z,4.25
2022-09-18T01:09:02.600Z,4.35
2022-09-18T01:14:29.501Z,5.22
2022-09-18T01:17:28.673Z,5.97
2022-09-18T01:20:49.687Z,5.30
2022-09-18T01:23:40.708Z,5.78
2022-09-18T01:26:34.706Z,5.28
2022-09-18T01:29:18.934Z,5.65
2022-09-18T01:31:53.229Z,5.40
2022-09-18T01:34:58.686Z,5.28
2022-09-18T01:37:36.215Z,5.18
2022-09-18T01:40:27.050Z,5.85
2022-09-18T01:43:00.504Z,4.95
2022-09-18T01:45:34.483Z,5.30
2022-09-18T01:48:08.178Z,5.00
2022-09-18T01:50:44.999Z,5.45
2022-09-18T01:53:19.768Z,5.03
2022-09-18T01:56:15.713Z,5.38
2022-09-18T01:58:44.238Z,5.22
2022-09-18T02:01:19.280Z,5.30
2022-09-18T02:03:56.484Z,5.22
2022-09-18T02:06:38.638Z,5.45
2022-09-18T02:09:08.551Z,5.03
2022-09-18T02:11:41.093Z,5.03
2022-09-18T02:14:26.034Z,5.13
2022-09-18T02:17:07.419Z,5.05
2022-09-18T02:19:46.288Z,5.10
2022-09-18T02:22:19.975Z,4.97
2022-09-18T02:24:52.016Z,5.40
2022-09-18T02:27:22.886Z,4.78
2022-09-18T02:29:51.390Z,4.82
2022-09-18T02:32:18.891Z,5.18
2022-09-18T02:34:46.159Z,4.90
2022-09-18T02:37:21.914Z,5.47
2022-09-18T02:40:15.276Z,5.85
2022-09-18T02:43:32.539Z,5.00
2022-09-18T02:46:30.708Z,5.57
2022-09-18T02:49:20.310Z,5.65
2022-09-18T02:51:59.448Z,5.65
2022-09-18T02:54:55.799Z,5.22
2022-09-18T02:57:39.184Z,4.90
2022-09-18T03:02:38.631Z,5.03
2022-09-18T03:05:06.646Z,5.60
2022-09-18T03:07:33.732Z,5.47
2022-09-18T03:10:00.742Z,5.07
2022-09-18T03:12:27.990Z,5.70
2022-09-18T03:14:55.202Z,6.10
2022-09-18T03:17:22.211Z,5.63
2022-09-18T03:19:49.270Z,5.28
2022-09-18T03:22:16.450Z,5.55
2022-09-18T03:24:43.494Z,5.43
2022-09-18T03:27:10.897Z,4.80
2022-09-18T03:29:37.936Z,5.20
2022-09-18T03:32:05.259Z,5.10
2022-09-18T03:34:32.417Z,5.50
2022-09-18T03:36:59.396Z,5.63
2022-09-18T03:39:26.448Z,5.75
2022-09-18T03:41:53.416Z,6.10
2022-09-18T03:44:20.396Z,5.95
2022-09-18T03:46:47.670Z,5.95
2022-09-18T03:49:14.666Z,5.28
2022-09-18T03:51:41.681Z,5.40
2022-09-18T03:54:08.799Z,5.18
2022-09-18T03:56:38.518Z,5.60
2022-09-18T03:59:05.694Z,4.97
2022-09-18T04:01:32.775Z,5.13
2022-09-18T04:03:59.896Z,5.63
2022-09-18T04:06:27.040Z,4.82
2022-09-18T04:08:54.090Z,5.38
2022-09-18T04:11:21.053Z,4.95
2022-09-18T04:13:48.110Z,4.70
2022-09-18T04:16:15.119Z,4.80
2022-09-18T04:18:42.136Z,4.95
2022-09-18T04:21:09.212Z,5.00
2022-09-18T04:23:36.273Z,5.00
2022-09-18T04:26:09.014Z,5.75
2022-09-18T04:28:38.039Z,6.70
2022-09-18T04:31:05.401Z,5.47
2022-09-18T04:33:32.483Z,5.95
2022-09-18T04:35:59.550Z,5.22
2022-09-18T04:38:29.827Z,5.40
2022-09-18T04:40:58.138Z,5.20
2022-09-18T04:43:26.824Z,5.25
2022-09-18T04:45:55.277Z,5.20
2022-09-18T04:48:22.813Z,5.35
2022-09-18T04:50:51.315Z,5.68
2022-09-18T04:53:19.787Z,5.40
2022-09-18T04:55:48.355Z,5.10
2022-09-18T04:58:17.715Z,4.88
2022-09-18T05:00:44.714Z,5.80
2022-09-18T05:03:11.900Z,5.40
2022-09-18T05:05:41.710Z,5.10
2022-09-18T05:08:08.703Z,5.10
2022-09-18T05:10:35.748Z,5.20
2022-09-18T05:13:02.743Z,5.45
2022-09-18T05:15:29.720Z,4.93
2022-09-18T05:18:10.548Z,5.57
2022-09-18T05:20:38.815Z,5.15
2022-09-18T05:23:07.115Z,5.32
2022-09-18T05:25:34.473Z,5.53
2022-09-18T05:28:03.516Z,6.65
2022-09-18T05:30:32.055Z,5.43
2022-09-18T05:33:02.474Z,5.38
2022-09-18T05:35:33.805Z,5.55
2022-09-18T05:38:02.209Z,4.70
2022-09-18T05:40:35.099Z,5.13
2022-09-18T05:43:05.754Z,5.20
2022-09-18T05:45:33.690Z,4.90
2022-09-18T05:48:05.570Z,4.57
2022-09-18T05:50:35.309Z,4.65
2022-09-18T05:53:08.097Z,5.30
2022-09-18T05:55:35.397Z,4.93
2022-09-18T05:58:04.885Z,4.85
2022-09-18T06:00:34.714Z,4.80
2022-09-18T06:03:05.965Z,4.38
2022-09-18T06:05:36.749Z,4.10
2022-09-18T06:08:07.017Z,4.43
2022-09-18T06:10:39.309Z,4.63
2022-09-18T06:13:13.209Z,4.60
2022-09-18T06:15:40.470Z,4.30
2022-09-18T06:18:10.731Z,4.45
2022-09-18T06:20:37.830Z,4.00
2022-09-18T06:23:04.838Z,3.65
2022-09-18T06:25:32.100Z,3.47
2022-09-18T06:28:00.935Z,4.13
2022-09-18T06:30:34.331Z,4.30
2022-09-18T06:33:07.264Z,3.75
2022-09-18T06:35:36.094Z,3.80
2022-09-18T06:38:04.768Z,3.97
2022-09-18T06:40:33.575Z,4.53
2022-09-18T06:43:02.385Z,4.65
2022-09-18T06:45:31.171Z,4.10
2022-09-18T06:48:02.918Z,3.72
2022-09-18T06:50:30.947Z,3.88
2022-09-18T06:53:11.722Z,4.10
2022-09-18T06:55:39.716Z,3.92
2022-09-18T06:58:07.073Z,4.45
2022-09-18T07:00:34.232Z,4.57
2022-09-18T07:03:03.716Z,4.55
2022-09-18T07:05:32.912Z,4.18
2022-09-18T07:08:00.565Z,4.50
2022-09-18T07:10:27.829Z,3.97
2022-09-18T07:12:59.941Z,4.28
2022-09-18T07:15:27.754Z,4.32
2022-09-18T07:18:00.239Z,4.60
2022-09-18T07:20:28.367Z,4.90
2022-09-18T07:23:03.080Z,3.83
2022-09-18T07:25:32.457Z,4.00
2022-09-18T07:28:08.311Z,3.60
2022-09-18T07:30:37.601Z,3.83
2022-09-18T07:33:07.783Z,3.67
2022-09-18T07:35:36.364Z,3.65
2022-09-18T07:38:06.453Z,4.00
2022-09-18T07:40:34.597Z,4.10
2022-09-18T07:43:04.992Z,3.80
2022-09-18T07:45:32.454Z,3.55
2022-09-18T07:48:07.692Z,3.70
2022-09-18T07:50:34.982Z,3.53
2022-09-18T07:53:05.422Z,3.90
2022-09-18T07:55:36.684Z,3.50
2022-09-18T07:58:07.191Z,3.80
2022-09-18T08:00:37.092Z,3.90
2022-09-18T08:03:11.909Z,3.90
2022-09-18T08:05:42.144Z,4.07
2022-09-18T08:08:13.183Z,5.30
2022-09-18T08:10:43.321Z,6.03
2022-09-18T08:13:11.127Z,9.43
2022-09-18T08:15:41.780Z,7.97
2022-09-18T08:18:11.671Z,11.77
2022-09-18T08:20:39.241Z,8.77
2022-09-18T08:23:11.607Z,7.20
2022-09-18T08:25:39.557Z,20.13
2022-09-18T08:28:08.629Z,7.35
2022-09-18T08:30:36.807Z,4.85
2022-09-18T08:33:09.883Z,13.43
2022-09-18T08:38:05.718Z,7.78
2022-09-18T08:41:17.058Z,3.95
2022-09-18T08:43:57.019Z,3.53
2022-09-18T08:47:04.636Z,3.50
2022-09-18T08:50:17.251Z,3.05
2022-09-18T08:52:51.142Z,3.30
2022-09-18T08:55:30.487Z,3.00
2022-09-18T08:58:08.308Z,3.20
2022-09-18T09:00:42.506Z,3.35
2022-09-18T09:03:43.653Z,2.83
2022-09-18T09:06:28.837Z,3.28
2022-09-18T09:09:22.846Z,3.33
2022-09-18T09:12:16.939Z,3.53
2022-09-18T09:15:08.235Z,3.53
2022-09-18T09:18:04.803Z,2.70
2022-09-18T09:21:22.757Z,2.60
2022-09-18T09:24:21.134Z,2.97
2022-09-18T09:26:55.276Z,3.50
2022-09-18T09:29:29.281Z,3.20
2022-09-18T09:32:11.012Z,2.70
2022-09-18T09:34:57.267Z,2.38
2022-09-18T09:37:40.491Z,3.40
2022-09-18T09:40:34.820Z,3.70
2022-09-18T09:43:29.815Z,3.10
2022-09-18T09:46:10.180Z,2.92
2022-09-18T09:49:01.233Z,3.28
2022-09-18T09:51:37.513Z,3.08
2022-09-18T09:54:12.689Z,2.63
2022-09-18T09:57:07.892Z,2.60
2022-09-18T10:00:22.147Z,2.80
2022-09-18T10:03:01.860Z,2.88
2022-09-18T10:06:03.726Z,3.30
2022-09-18T10:08:45.907Z,2.67
2022-09-18T10:11:14.811Z,2.40
2022-09-18T10:14:00.107Z,2.83
2022-09-18T10:16:33.725Z,3.17
2022-09-18T10:19:02.128Z,2.85
2022-09-18T10:21:36.208Z,3.22
2022-09-18T10:24:31.866Z,2.85
2022-09-18T10:27:07.661Z,2.70
2022-09-18T10:29:36.180Z,2.78
2022-09-18T10:32:07.657Z,3.45
2022-09-18T10:34:46.788Z,2.70
2022-09-18T10:37:15.085Z,2.60
2022-09-18T10:39:55.764Z,2.30
2022-09-18T10:42:26.816Z,2.08
2022-09-18T10:45:01.788Z,2.42
2022-09-18T10:47:37.021Z,2.47
2022-09-18T10:50:06.978Z,2.30
2022-09-18T10:52:38.859Z,2.63
2022-09-18T10:55:06.360Z,2.67
2022-09-18T10:57:39.141Z,8.55
2022-09-18T11:00:21.273Z,3.97
2022-09-18T11:03:01.183Z,3.35
2022-09-18T11:05:37.169Z,6.30
2022-09-18T11:08:17.485Z,2.50
2022-09-18T11:11:19.754Z,21.55
2022-09-18T11:14:01.556Z,4.80
2022-09-18T11:16:38.877Z,2.28
2022-09-18T11:19:11.060Z,2.30
2022-09-18T11:21:52.497Z,2.58
2022-09-18T11:24:31.372Z,2.38
2022-09-18T11:27:01.779Z,2.75
2022-09-18T11:29:39.846Z,2.42
2022-09-18T11:32:29.401Z,2.10
2022-09-18T11:35:04.214Z,2.38
2022-09-18T11:37:33.749Z,2.50
2022-09-18T11:40:22.012Z,2.50
2022-09-18T11:42:54.157Z,6.50
2022-09-18T11:45:49.060Z,6.22
2022-09-18T11:48:39.287Z,3.20
2022-09-18T11:51:18.898Z,3.65
2022-09-18T11:53:55.412Z,2.55
2022-09-18T11:56:40.846Z,2.40
2022-09-18T11:59:46.550Z,2.13
2022-09-18T12:02:35.682Z,1.90
2022-09-18T12:05:24.704Z,1.70
2022-09-18T12:08:21.809Z,1.80
2022-09-18T12:11:04.936Z,1.65
2022-09-18T12:13:45.412Z,1.75
2022-09-18T12:16:50.056Z,2.08
2022-09-18T12:19:48.353Z,1.83
2022-09-18T12:22:30.347Z,2.10
2022-09-18T12:25:00.527Z,2.15
2022-09-18T12:28:07.187Z,2.40
2022-09-18T12:30:57.452Z,2.28
2022-09-18T12:33:34.539Z,1.88
2022-09-18T12:36:10.504Z,2.10
2022-09-18T12:39:14.083Z,1.55
2022-09-18T12:42:27.097Z,1.85
2022-09-18T12:45:32.206Z,2.00
2022-09-18T12:48:38.657Z,1.90
2022-09-18T12:51:29.926Z,2.20
2022-09-18T12:54:15.315Z,1.70
2022-09-18T12:57:05.888Z,1.98
2022-09-18T13:00:12.737Z,2.03
2022-09-18T13:02:52.595Z,2.60
2022-09-18T13:05:43.882Z,2.90
2022-09-18T13:08:28.038Z,2.60
2022-09-18T13:11:03.662Z,2.72
2022-09-18T13:14:14.634Z,2.70
2022-09-18T13:17:11.295Z,2.53
2022-09-18T13:20:15.954Z,2.58
2022-09-18T13:22:49.164Z,3.00
2022-09-18T13:25:30.044Z,2.72
2022-09-18T13:28:02.140Z,2.78
2022-09-18T13:30:33.832Z,1.20
2022-09-18T13:33:03.898Z,0.82
2022-09-18T13:35:39.966Z,1.02
2022-09-18T13:38:14.729Z,1.20
2022-09-18T13:41:03.894Z,1.10
2022-09-18T13:43:35.144Z,0.90
2022-09-18T13:46:07.154Z,1.00
2022-09-18T13:48:40.670Z,0.90
2022-09-18T13:51:23.374Z,0.88
2022-09-18T13:54:34.771Z,1.75
2022-09-18T13:57:14.872Z,1.20
2022-09-18T13:59:48.083Z,1.20
2022-09-18T14:02:36.254Z,1.40
2022-09-18T14:05:28.507Z,1.95
2022-09-18T14:08:04.581Z,1.00
2022-09-18T14:10:38.559Z,1.33
2022-09-18T14:13:38.057Z,1.13
2022-09-18T14:16:20.346Z,1.08
2022-09-18T14:18:47.626Z,0.90
2022-09-18T14:21:17.762Z,0.82
2022-09-18T14:23:47.977Z,1.05
2022-09-18T14:26:37.643Z,1.30
2022-09-18T14:29:10.372Z,1.58
2022-09-18T14:31:52.116Z,2.10
2022-09-18T14:34:34.230Z,1.05
2022-09-18T14:37:20.220Z,2.92
2022-09-18T14:39:47.625Z,2.88
2022-09-18T14:42:36.591Z,5.20
2022-09-18T14:45:13.052Z,3.80
2022-09-18T14:47:47.124Z,4.60
2022-09-18T14:50:30.879Z,1.30
2022-09-18T14:53:01.981Z,2.13
2022-09-18T14:55:53.978Z,2.60
2022-09-18T14:58:28.493Z,1.40
2022-09-18T15:00:56.740Z,1.52
2022-09-18T15:03:32.585Z,0.82
2022-09-18T15:06:40.314Z,1.33
2022-09-18T15:09:13.129Z,1.67
2022-09-18T15:12:01.889Z,1.65
2022-09-18T15:14:44.017Z,1.40
2022-09-18T15:17:20.333Z,1.50
2022-09-18T15:20:03.361Z,4.50
2022-09-18T15:22:30.794Z,6.30
2022-09-18T15:25:00.947Z,3.92
2022-09-18T15:27:32.093Z,7.55
2022-09-18T15:30:08.119Z,5.90
2022-09-18T15:32:43.506Z,5.03
2022-09-18T15:35:25.950Z,7.05
2022-09-18T15:38:04.147Z,7.75
2022-09-18T15:40:39.551Z,10.40
2022-09-18T15:43:40.956Z,8.48
2022-09-18T15:46:12.437Z,12.85
2022-09-18T15:48:48.225Z,14.27
2022-09-18T15:51:25.288Z,10.63
2022-09-18T15:54:10.808Z,13.10
2022-09-18T15:56:58.339Z,10.82
2022-09-18T15:59:38.056Z,17.85
2022-09-18T16:02:29.251Z,18.92
2022-09-18T16:04:56.457Z,12.20
2022-09-18T16:07:29.679Z,10.65
2022-09-18T16:09:57.341Z,15.20
2022-09-18T16:12:41.893Z,5.45
2022-09-18T16:15:25.645Z,3.60
2022-09-18T16:18:02.032Z,4.57
2022-09-18T16:20:39.682Z,3.35
2022-09-18T16:23:24.346Z,5.85
2022-09-18T16:26:19.998Z,2.85
2022-09-18T16:28:59.075Z,4.82
2022-09-18T16:31:31.045Z,3.53
2022-09-18T16:34:19.898Z,5.25
2022-09-18T16:36:48.333Z,3.20
2022-09-18T16:39:19.276Z,2.95
2022-09-18T16:41:47.107Z,2.55
2022-09-18T16:44:15.814Z,2.55
2022-09-18T16:46:49.920Z,3.10
2022-09-18T16:49:42.767Z,2.60
2022-09-18T16:52:11.507Z,1.80
2022-09-18T16:54:38.744Z,3.05
2022-09-18T16:57:20.432Z,2.60
2022-09-18T16:59:50.634Z,1.33
2022-09-18T17:02:24.265Z,2.05
2022-09-18T17:04:52.954Z,10.45
2022-09-18T17:07:20.015Z,3.13
2022-09-18T17:09:47.109Z,2.67
2022-09-18T17:12:14.152Z,2.50
2022-09-18T17:14:41.414Z,9.68
2022-09-18T17:17:08.986Z,15.52
2022-09-18T17:19:37.146Z,7.72
2022-09-18T17:22:04.396Z,13.02
2022-09-18T17:24:38.811Z,14.90
2022-09-18T17:27:06.001Z,14.88
2022-09-18T17:29:33.541Z,20.13
2022-09-18T17:32:03.207Z,10.38
2022-09-18T17:34:39.789Z,9.75
2022-09-18T17:37:09.624Z,8.00
2022-09-18T17:39:37.272Z,14.60
2022-09-18T17:42:04.697Z,10.35
2022-09-18T17:44:34.464Z,8.50
2022-09-18T17:47:01.657Z,11.90
2022-09-18T17:49:32.453Z,10.23
2022-09-18T17:52:00.316Z,6.13
2022-09-18T17:54:27.995Z,3.67
2022-09-18T17:56:55.923Z,3.30
2022-09-18T17:59:23.042Z,3.95
2022-09-18T18:01:50.776Z,2.85
2022-09-18T18:04:18.120Z,3.20
2022-09-18T18:06:49.063Z,5.00
2022-09-18T18:09:16.614Z,4.05
2022-09-18T18:11:46.179Z,3.33
2022-09-18T18:14:16.218Z,3.30
2022-09-18T18:16:43.755Z,3.70
2022-09-18T18:19:12.957Z,2.35
2022-09-18T18:21:42.409Z,2.53
2022-09-18T18:24:15.653Z,2.28
2022-09-18T18:26:44.961Z,2.00
2022-09-18T18:29:16.994Z,2.45
2022-09-18T18:31:45.988Z,3.00
2022-09-18T18:34:13.731Z,3.03
2022-09-18T18:36:50.126Z,3.40
2022-09-18T18:39:20.098Z,2.88
2022-09-18T18:41:47.774Z,2.90
2022-09-18T18:44:15.633Z,3.40
2022-09-18T18:46:43.507Z,4.25
2022-09-18T18:49:15.071Z,3.15
2022-09-18T18:51:48.152Z,2.90
2022-09-18T19:08:32.102Z,9.02
2022-09-18T19:11:01.193Z,3.85
2022-09-18T19:13:30.027Z,4.78
2022-09-18T19:15:57.504Z,3.92
2022-09-18T19:18:24.731Z,4.60
2022-09-18T19:20:53.703Z,3.75
2022-09-18T19:23:21.029Z,3.80
2022-09-18T19:25:48.248Z,4.10
2022-09-18T19:28:17.143Z,3.20
2022-09-18T19:30:47.482Z,3.58
2022-09-18T19:33:17.260Z,3.30
2022-09-18T19:35:44.589Z,3.35
2022-09-18T19:38:19.839Z,3.40
2022-09-18T19:40:50.988Z,3.08
2022-09-18T19:43:28.881Z,3.20
2022-09-18T19:45:55.935Z,3.67
2022-09-18T19:48:27.056Z,3.67
2022-09-18T19:50:54.812Z,4.03
2022-09-18T19:53:22.909Z,3.60
2022-09-18T19:55:50.045Z,4.85
2022-09-18T19:58:17.916Z,5.65
2022-09-18T20:00:46.626Z,4.47
2022-09-18T20:03:15.382Z,3.60
2022-09-18T20:05:43.151Z,2.90
2022-09-18T20:08:11.415Z,2.47
2022-09-18T20:10:40.698Z,2.42
2022-09-18T20:13:09.840Z,3.17
2022-09-18T20:15:37.155Z,3.20
2022-09-18T20:18:07.182Z,3.03
2022-09-18T20:20:37.359Z,2.88
2022-09-18T20:23:07.424Z,2.90
2022-09-18T20:25:36.249Z,3.08
2022-09-18T20:28:03.432Z,2.80
2022-09-18T20:30:30.611Z,3.33
2022-09-18T20:32:57.675Z,2.60
2022-09-18T20:35:24.826Z,2.50
2022-09-18T20:37:51.915Z,2.40
2022-09-18T20:40:19.225Z,2.92
2022-09-18T20:42:51.567Z,3.65
2022-09-18T20:45:19.335Z,2.90
2022-09-18T20:47:47.247Z,3.10
2022-09-18T20:50:17.145Z,2.92
2022-09-18T20:52:45.264Z,3.28
2022-09-18T20:55:17.472Z,3.53
2022-09-18T20:57:46.350Z,3.10
2022-09-18T21:00:16.195Z,3.50
2022-09-18T21:02:44.273Z,3.70
2022-09-18T21:05:15.330Z,3.25
2022-09-18T21:07:45.747Z,3.95
2022-09-18T21:10:14.637Z,3.85
2022-09-18T21:12:41.850Z,3.60
2022-09-18T21:15:16.135Z,3.63
2022-09-18T21:17:43.256Z,3.50
2022-09-18T21:20:11.027Z,3.80
2022-09-18T21:23:01.662Z,3.83
2022-09-18T21:25:31.088Z,4.22
2022-09-18T21:27:58.280Z,3.90
2022-09-18T21:30:26.659Z,3.75
2022-09-18T21:32:55.789Z,3.95
2022-09-18T21:35:23.063Z,3.40
2022-09-18T21:37:50.062Z,3.75
2022-09-18T21:40:17.199Z,3.60
2022-09-18T21:42:47.646Z,4.30
2022-09-18T21:45:19.596Z,3.95
2022-09-18T21:47:48.089Z,4.38
2022-09-18T21:50:15.515Z,4.20
2022-09-18T21:52:45.287Z,4.72
2022-09-18T21:55:12.357Z,3.38
2022-09-18T21:57:39.501Z,3.28
2022-09-18T22:00:09.336Z,3.42
2022-09-18T22:02:36.585Z,3.00
2022-09-18T22:05:08.247Z,3.33
2022-09-18T22:07:35.650Z,3.17
2022-09-18T22:10:02.688Z,3.00
2022-09-18T22:12:33.861Z,3.00
2022-09-18T22:15:00.977Z,2.80
2022-09-18T22:17:28.339Z,2.95
2022-09-18T22:19:56.566Z,3.03
2022-09-18T22:22:23.697Z,3.08
2022-09-18T22:24:50.770Z,3.05
2022-09-18T22:27:18.131Z,2.95
2022-09-18T22:29:45.124Z,3.30
2022-09-18T22:32:12.191Z,2.67
2022-09-18T22:34:41.703Z,2.83
2022-09-18T22:37:10.190Z,2.80
2022-09-18T22:39:37.220Z,2.38
2022-09-18T22:42:04.431Z,2.47
2022-09-18T22:44:31.476Z,2.92
2022-09-18T22:46:58.551Z,2.65
2022-09-18T22:49:25.610Z,2.67
2022-09-18T22:51:52.832Z,2.88
2022-09-18T22:54:26.001Z,3.00
2022-09-18T22:56:57.048Z,2.80
2022-09-18T22:59:26.782Z,3.22
2022-09-18T23:02:02.351Z,3.15
2022-09-18T23:04:31.733Z,3.20
2022-09-18T23:06:59.510Z,2.88
2022-09-18T23:09:27.971Z,3.35
2022-09-18T23:11:55.999Z,2.90
2022-09-18T23:14:27.869Z,3.00
2022-09-18T23:16:57.376Z,2.75
2022-09-18T23:19:30.715Z,3.00
2022-09-18T23:21:58.420Z,3.15
2022-09-18T23:24:26.341Z,3.08
2022-09-18T23:26:56.850Z,2.80
2022-09-18T23:29:26.819Z,3.50
2022-09-18T23:31:57.426Z,3.65
2022-09-18T23:34:31.662Z,3.13
2022-09-18T23:36:59.638Z,3.17
2022-09-18T23:39:33.892Z,3.03
2022-09-18T23:42:03.269Z,3.40
2022-09-18T23:44:31.765Z,3.50
2022-09-18T23:47:00.055Z,3.15
2022-09-18T23:49:28.099Z,3.95
2022-09-18T23:51:56.192Z,3.83
2022-09-18T23:54:27.782Z,3.92
2022-09-18T23:56:55.526Z,3.80
2022-09-18T23:59:25.319Z,3.17
